Decoded Metar for KNOG (ORANGE GROVE in TX, USA) (IATA:NOG) | Meteo·Mobile Aviation Weather
aviador You're here:

KNOG Decoded Metar

ORANGE GROVE in TX, USA
Report Time2018-11-19 01:45:00
UTC Time2018-11-19 03:46:25
Flight Rules Old
Wind030° at 11 kt
W.Decomp.*RWY 01: 10.6 kt HW 2.8 kt RCW
RWY 31: 2.8 kt HW 10.6 kt RCW
W.Rank030° ranks 11
Current wind is above 030° avg. (7.9)
Visibility6437 m
Phenomena:Light Rain
Mist
Clouds:Overcast 006 Hf
Expected CloudBase > 400 ft AGL from Temp-Dew spread
Ceiling600 ft
Temp11°C (ISA -3)
Dew Point10°C (94% RH)
AAT7.1°C
QNH1021 hPa
Density Alt-266 ft
Elevation256 ft
Report Wrong Elevation
Raw Report
KNOG 190145Z AUTO 03011KT 4SM -RA BR OVC006 11/10 A3015 RMK AO2
RAB26 P0003 T01060100 $=

Extra information for KNOG:More info

Metar Taf Metar & Taf Last 4 Metars F.Rules Stats Wind Profile Meteogram Temp Stats Airport Information Weather charts Add Link Nearby VenuesMetar ALERT Operation Metar Decoded Social comments

AIRNAV info for KNOG